AirNav   Get $300 off a Bose A20
 
 996 users online  

4CO2 Owl Canyon Gliderport
Wellington, Colorado, USA

GOING TO WELLINGTON?


FAA INFORMATION EFFECTIVE 25 APRIL 2019

Location

FAA Identifier: 4CO2
Lat/Long: 40-48-16.9380N / 104-59-05.9000W
40-48.282300N / 104-59.098333W
40.8047050 / -104.9849722
(estimated)
Elevation: 5545 ft. / 1690 m (estimated)
Variation: 12E (1985)
From city: 6 miles N of WELLINGTON, CO
Time zone: UTC -6 (UTC -7 during Standard Time)
Zip code: 80549

Gliderport Operations

Gliderport use: Private use. Permission required prior to landing
Activation date: 11/1974
Control tower: no
ARTCC: DENVER CENTER
FSS: DENVER FLIGHT SERVICE STATION
Attendance: SAT-SUN 0900-1700
Wind indicator: yes
Segmented circle: no

Gliderport Communications

  • COMS AVBL ON FREQ 123.3.

Nearby radio navigation aids

VOR radial/distance  VOR name  Freq  Var
CYSr188/26.2CHEYENNE VORTAC113.1013E
GLLr300/26.7GILL VOR/DME114.2013E

Gliderport Services

Airframe service: NONE
Powerplant service: NONE

Runway Information

Runway 1L/19R

Dimensions: 3000 x 16 ft. / 914 x 5 m
Surface: asphalt/turf
RWY 01L/19R - 2000 FT ASPH; 1000 FT TURF.
RUNWAY 1L  RUNWAY 19R
Traffic pattern: leftleft
Obstructions: fencenone

Runway 1R/19L

Dimensions: 3000 x 24 ft. / 914 x 7 m
Surface: turf
RUNWAY 1R  RUNWAY 19L
Traffic pattern: leftleft
Obstructions: fencenone

Runway 15/33

Dimensions: 2500 x 50 ft. / 762 x 15 m
Surface: turf
RUNWAY 15  RUNWAY 33
Traffic pattern: leftleft
Obstructions: nonefence

Runway 9/27

Dimensions: 1800 x 50 ft. / 549 x 15 m
Surface: turf
RUNWAY 9  RUNWAY 27
Traffic pattern: leftleft

Gliderport Ownership and Management from official FAA records

Ownership: Privately-owned
Owner: COLORADO SOARING ASSN.
4598 HACKAMORE ROAD
WELLINGTON, CO 80549
Phone 970-568-7627
Manager: BOARD OF DIRECTORS
4598 HACKAMORE ROAD
WELLINGTON, CO 80549
Phone 970-568-7627
COLORADO SOARING ASSN.

Gliderport Operational Statistics

Aircraft based on the field: 25
Single engine airplanes: 3
Gliders airplanes: 22
    

Additional Remarks

TFC PAT: GLIDERS REMAIN SOUTH AND WEST OF FIELD. POWERED TFC (AIRPLANES, HELS, ULTRALIGHTS) REMAIN NORTH AND EAST OF FIELD.
(A52/02) 20 - ROAD RUNNING N/S INTERSECTS DIRT PORTION OF RWY 01L / 19R N. END.

Instrument Procedures

There are no published instrument procedures at 4CO2.

Some nearby airports with instrument procedures:

KFNL - Northern Colorado Regional Airport (21 nm S)
KCYS - Cheyenne Regional Airport/Jerry Olson Field (22 nm N)
KGXY - Greeley-Weld County Airport (27 nm SE)
KLMO - Vance Brand Airport (39 nm S)
KLAR - Laramie Regional Airport (44 nm NW)
 
Loc | Ops | Rwys | IFR | FBO | Links
Com | Nav | Svcs | Stats | Notes

AirBoss

 
Area around 4CO2 (Owl Canyon Gliderport)
 
Road maps at: MapQuest Bing Google
 
Aerial photo
No photo
 
Sectional chart

 
Airport distance calculator
Flying to Owl Canyon Gliderport? Find the distance to fly.

From to 4CO2

Sunrise and sunset
Times for 19-May-2019
 Local
(UTC-6)
 Zulu
(UTC)
Morning civil twilight05:0811:08
Sunrise05:4011:40
Sunset20:1302:13
Evening civil twilight20:4402:44

Current date and time
Zulu (UTC)  19-May-2019 15:58:48
Local (UTC-6)  19-May-2019 09:58:48
 
METAR
KFEW 
20nm N 
191538Z AUTO 00000KT 10SM BKN015 OVC026 02/M02 A3001 RMK AO2 SLP171 $
KFNL 
21nm S 
191456Z AUTO 15006KT 10SM BKN012 OVC019 04/01 A3002 RMK AO2 SLP156 T00390006 50001
KCYS 
22nm N 
191553Z 09005KT 10SM OVC016 02/M03 A2999 RMK AO2 SLP163 T00221028
KGXY 
29nm SE 
191549Z 10007KT 10SM OVC028 05/M01 A3002 RMK AO2
KLMO 
39nm S 
191555Z AUTO 16005KT 10SM OVC017 06/01 A3002 RMK AO2 T00600007
TAF
KCYS 
22nm N 
191120Z 1912/2012 35007KT P6SM BKN015 FM192100 14007KT P6SM VCSH BKN025 FM200000 13013KT P6SM SHRA OVC020 FM200600 11013KT 6SM -SHRA BR OVC009
NOTAMs
Click for the latest NOTAMs
NOTAMs are issued by the DoD/FAA and will open in a separate window not controlled by AirNav.

 

 
 

Would you like to see your business listed on this page?

 If your business provides an interesting product or service to pilots, flight crews, aircraft, or users of the Owl Canyon Gliderport, you should consider listing it here.  To start the listing process, click on the button below
 
Add a business
 

Other Pages about Owl Canyon Gliderport

soarcsa.org
 
Update a link
 
Copyright © AirNav, LLC. All rights reserved. Privacy Policy  Contact